Wetterdaten: Woche 21.06.21 - 27.06.21 (KW25)
Datum Zeit Temp. Aussen Temp. o. S. Temp +5cm Feuchte Auss Luftdruck Regen Sonnenschein Regendauer Solar Windben Empfang
21.06.2021 00:00 21,8 C 19,5 C 17,0 C 83 % 1006,0 hPa 1,8 l/m 0,00 h 0,57 h 0 W/m 5,1 km/h (1 Bft) 95,69 %
21.06.2021 01:00 19,6 C 18,3 C 15,7 C 91 % 1005,1 hPa 0,0 l/m 0,00 h 0,00 h 0 W/m 13,3 km/h (3 Bft) 99,09 %
21.06.2021 02:00 19,1 C 18,0 C 16,1 C 95 % 1004,7 hPa 2,0 l/m 0,00 h 0,30 h 0 W/m 16,6 km/h (3 Bft) 96,34 %
21.06.2021 03:00 18,8 C 17,6 C 16,2 C 97 % 1004,2 hPa 8,4 l/m 0,00 h 0,80 h 0 W/m 15,3 km/h (3 Bft) 96,11 %
21.06.2021 04:00 18,3 C 17,2 C 16,3 C 98 % 1004,0 hPa 7,4 l/m 0,00 h 0,57 h 0 W/m 12,9 km/h (3 Bft) 99,49 %
21.06.2021 05:00 17,6 C 16,6 C 15,9 C 99 % 1003,7 hPa 0,4 l/m 0,00 h 0,63 h 10 W/m 15,1 km/h (3 Bft) 97,64 %
21.06.2021 06:00 16,6 C 15,7 C 15,1 C 99 % 1003,8 hPa 0,0 l/m 0,00 h 0,00 h 9 W/m 18,8 km/h (3 Bft) 97,34 %
21.06.2021 07:00 16,1 C 15,6 C 14,8 C 99 % 1003,9 hPa 0,0 l/m 0,00 h 0,00 h 20 W/m 15,7 km/h (3 Bft) 98,18 %
21.06.2021 08:00 15,8 C 15,4 C 14,6 C 99 % 1004,2 hPa 0,0 l/m 0,00 h 0,00 h 41 W/m 12,9 km/h (3 Bft) 95,23 %
21.06.2021 09:00 15,6 C 15,1 C 14,5 C 99 % 1004,8 hPa 0,0 l/m 0,00 h 0,10 h 45 W/m 12,5 km/h (3 Bft) 97,15 %
21.06.2021 10:00 15,4 C 15,4 C 14,6 C 99 % 1005,4 hPa 0,0 l/m 0,00 h 0,00 h 122 W/m 14,6 km/h (3 Bft) 99,22 %
21.06.2021 11:00 15,4 C 15,4 C 14,6 C 99 % 1006,3 hPa 0,2 l/m 0,00 h 0,03 h 146 W/m 13,6 km/h (3 Bft) 97,43 %
21.06.2021 12:00 15,5 C 16,3 C 14,8 C 99 % 1007,4 hPa 0,0 l/m 0,10 h 0,00 h 300 W/m 23,1 km/h (4 Bft) 98,57 %
21.06.2021 13:00 16,4 C 17,1 C 16,0 C 95 % 1008,6 hPa 0,0 l/m 0,20 h 0,00 h 247 W/m 19,0 km/h (3 Bft) 99,36 %
21.06.2021 14:00 16,4 C 16,6 C 15,8 C 93 % 1009,7 hPa 0,0 l/m 0,00 h 0,00 h 183 W/m 16,4 km/h (3 Bft) 94,73 %
21.06.2021 15:00 16,9 C 18,0 C 16,4 C 90 % 1010,5 hPa 0,0 l/m 0,20 h 0,00 h 342 W/m 19,4 km/h (3 Bft) 97,30 %
21.06.2021 16:00 17,9 C 18,9 C 17,0 C 86 % 1010,9 hPa 0,0 l/m 0,20 h 0,00 h 338 W/m 19,6 km/h (3 Bft) 99,72 %
21.06.2021 17:00 18,4 C 19,0 C 16,9 C 84 % 1011,3 hPa 0,0 l/m 0,07 h 0,00 h 245 W/m 14,3 km/h (3 Bft) 96,06 %
21.06.2021 18:00 18,9 C 20,3 C 17,3 C 82 % 1011,5 hPa 0,0 l/m 0,10 h 0,00 h 208 W/m 10,1 km/h (2 Bft) 97,65 %
21.06.2021 19:00 18,5 C 18,7 C 16,5 C 82 % 1011,6 hPa 0,0 l/m 0,30 h 0,00 h 155 W/m 15,9 km/h (3 Bft) 97,78 %
21.06.2021 20:00 17,0 C 16,5 C 14,9 C 86 % 1012,1 hPa 0,0 l/m 0,00 h 0,00 h 50 W/m 14,8 km/h (3 Bft) 96,64 %
21.06.2021 21:00 16,3 C 15,7 C 14,2 C 87 % 1013,0 hPa 0,0 l/m 0,00 h 0,00 h 7 W/m 13,3 km/h (3 Bft) 99,14 %
21.06.2021 22:00 15,7 C 15,1 C 13,7 C 88 % 1013,2 hPa 0,0 l/m 0,00 h 0,00 h 0 W/m 11,9 km/h (2 Bft) 98,09 %
21.06.2021 23:00 15,4 C 15,0 C 13,4 C 88 % 1014,1 hPa 0,0 l/m 0,00 h 0,00 h 0 W/m 10,3 km/h (2 Bft) 94,47 %
22.06.2021 00:00 15,1 C 14,5 C 13,3 C 88 % 1014,1 hPa 0,0 l/m 0,00 h 0,00 h 0 W/m 14,9 km/h (3 Bft) 99,00 %
22.06.2021 01:00 14,6 C 13,9 C 12,8 C 89 % 1014,3 hPa 0,0 l/m 0,00 h 0,00 h 0 W/m 13,2 km/h (3 Bft) 97,69 %
22.06.2021 02:00 14,2 C 13,8 C 12,4 C 87 % 1014,3 hPa 0,0 l/m 0,00 h 0,00 h 0 W/m 14,2 km/h (3 Bft) 97,04 %
22.06.2021 03:00 13,9 C 13,1 C 11,9 C 85 % 1014,3 hPa 0,0 l/m 0,00 h 0,00 h 0 W/m 11,2 km/h (2 Bft) 98,72 %
22.06.2021 04:00 13,2 C 12,4 C 11,0 C 87 % 1014,3 hPa 0,0 l/m 0,00 h 0,00 h 0 W/m 10,2 km/h (2 Bft) 95,23 %
22.06.2021 05:00 12,7 C 12,2 C 11,0 C 90 % 1014,7 hPa 0,0 l/m 0,00 h 0,00 h 11 W/m 10,8 km/h (2 Bft) 97,22 %
22.06.2021 06:00 12,8 C 12,5 C 11,3 C 91 % 1015,1 hPa 0,0 l/m 0,00 h 0,00 h 45 W/m 12,0 km/h (2 Bft) 99,15 %
22.06.2021 07:00 13,3 C 13,4 C 12,0 C 91 % 1015,4 hPa 0,0 l/m 0,10 h 0,00 h 118 W/m 12,7 km/h (3 Bft) 97,53 %
22.06.2021 08:00 14,1 C 15,0 C 13,0 C 88 % 1015,6 hPa 0,0 l/m 0,22 h 0,00 h 202 W/m 13,2 km/h (3 Bft) 97,93 %
22.06.2021 09:00 14,9 C 14,8 C 13,0 C 85 % 1015,8 hPa 0,0 l/m 0,00 h 0,03 h 126 W/m 11,0 km/h (2 Bft) 97,23 %
22.06.2021 10:00 14,9 C 15,7 C 13,3 C 87 % 1015,9 hPa 0,4 l/m 0,07 h 0,40 h 252 W/m 12,4 km/h (3 Bft) 96,66 %
22.06.2021 11:00 16,2 C 17,0 C 14,7 C 81 % 1016,0 hPa 0,0 l/m 0,00 h 0,00 h 288 W/m 15,1 km/h (3 Bft) 99,29 %
22.06.2021 12:00 16,8 C 17,5 C 15,1 C 77 % 1016,1 hPa 0,0 l/m 0,07 h 0,00 h 309 W/m 16,6 km/h (3 Bft) 98,47 %
22.06.2021 13:00 17,4 C 17,9 C 15,2 C 76 % 1016,0 hPa 0,0 l/m 0,00 h 0,00 h 236 W/m 12,9 km/h (3 Bft) 94,64 %
22.06.2021 14:00 17,3 C 17,3 C 14,9 C 77 % 1016,1 hPa 0,0 l/m 0,00 h 0,00 h 159 W/m 9,1 km/h (2 Bft) 99,71 %
22.06.2021 15:00 17,1 C 16,7 C 14,0 C 81 % 1016,2 hPa 0,4 l/m 0,00 h 0,50 h 108 W/m 7,3 km/h (2 Bft) 98,36 %
22.06.2021 16:00 16,2 C 14,6 C 12,5 C 90 % 1016,5 hPa 2,0 l/m 0,00 h 1,00 h 70 W/m 3,3 km/h (1 Bft) 96,11 %
22.06.2021 17:00 15,6 C 14,4 C 12,6 C 94 % 1016,7 hPa 1,0 l/m 0,00 h 0,87 h 101 W/m 5,2 km/h (1 Bft) 97,37 %
22.06.2021 18:00 15,4 C 14,2 C 12,7 C 95 % 1016,9 hPa 2,0 l/m 0,00 h 0,93 h 34 W/m 3,8 km/h (1 Bft) 97,41 %
22.06.2021 19:00 15,2 C 13,9 C 12,8 C 96 % 1017,5 hPa 1,0 l/m 0,00 h 0,80 h 28 W/m 3,1 km/h (1 Bft) 97,85 %
22.06.2021 20:00 14,6 C 13,4 C 12,7 C 97 % 1017,4 hPa 1,4 l/m 0,00 h 0,73 h 23 W/m 6,6 km/h (2 Bft) 99,10 %
22.06.2021 21:00 14,3 C 13,3 C 12,6 C 97 % 1017,9 hPa 0,4 l/m 0,00 h 0,53 h 5 W/m 4,8 km/h (1 Bft) 97,54 %
22.06.2021 22:00 14,2 C 13,3 C 12,8 C 98 % 1018,4 hPa 0,4 l/m 0,00 h 0,27 h 0 W/m 5,0 km/h (1 Bft) 96,30 %
22.06.2021 23:00 14,1 C 13,3 C 12,8 C 98 % 1018,8 hPa 0,0 l/m 0,00 h 0,00 h 0 W/m 7,6 km/h (2 Bft) 96,05 %
23.06.2021 00:00 13,7 C 12,8 C 12,3 C 98 % 1019,1 hPa 0,0 l/m 0,00 h 0,00 h 0 W/m 8,1 km/h (2 Bft) 97,06 %
23.06.2021 01:00 13,3 C 12,8 C 12,2 C 98 % 1018,9 hPa 0,0 l/m 0,00 h 0,00 h 0 W/m 11,1 km/h (2 Bft) 97,45 %
23.06.2021 02:00 13,0 C 12,3 C 11,7 C 97 % 1019,2 hPa 0,0 l/m 0,00 h 0,00 h 0 W/m 12,3 km/h (3 Bft) 98,15 %
23.06.2021 03:00 13,0 C 12,2 C 11,7 C 96 % 1019,3 hPa 0,0 l/m 0,00 h 0,00 h 0 W/m 11,6 km/h (2 Bft) 99,36 %
23.06.2021 04:00 12,9 C 12,2 C 11,7 C 96 % 1019,5 hPa 0,0 l/m 0,00 h 0,00 h 0 W/m 8,9 km/h (2 Bft) 95,47 %
23.06.2021 05:00 12,7 C 12,2 C 11,7 C 96 % 1019,7 hPa 0,0 l/m 0,00 h 0,00 h 7 W/m 8,4 km/h (2 Bft) 98,50 %
23.06.2021 06:00 12,8 C 12,3 C 12,1 C 96 % 1019,9 hPa 0,0 l/m 0,00 h 0,00 h 17 W/m 8,2 km/h (2 Bft) 98,01 %
23.06.2021 07:00 13,1 C 12,8 C 12,5 C 95 % 1020,0 hPa 0,0 l/m 0,00 h 0,00 h 41 W/m 7,9 km/h (2 Bft) 94,30 %
23.06.2021 08:00 13,6 C 13,7 C 13,2 C 93 % 1020,4 hPa 0,0 l/m 0,00 h 0,00 h 94 W/m 9,0 km/h (2 Bft) 97,86 %
23.06.2021 09:00 14,2 C 14,3 C 13,8 C 91 % 1020,7 hPa 0,0 l/m 0,00 h 0,00 h 125 W/m 9,8 km/h (2 Bft) 99,15 %
23.06.2021 10:00 14,9 C 15,3 C 14,4 C 89 % 1020,8 hPa 0,0 l/m 0,00 h 0,00 h 217 W/m 10,4 km/h (2 Bft) 96,74 %
23.06.2021 11:00 15,7 C 16,2 C 15,0 C 86 % 1021,0 hPa 0,0 l/m 0,00 h 0,00 h 214 W/m 10,3 km/h (2 Bft) 99,35 %
23.06.2021 12:00 16,2 C 16,7 C 15,3 C 84 % 1021,1 hPa 0,0 l/m 0,00 h 0,00 h 233 W/m 12,0 km/h (2 Bft) 96,41 %
23.06.2021 13:00 17,1 C 17,8 C 16,1 C 81 % 1021,1 hPa 0,0 l/m 0,00 h 0,00 h 319 W/m 13,7 km/h (3 Bft) 97,63 %
23.06.2021 14:00 17,8 C 18,4 C 16,3 C 79 % 1021,1 hPa 0,0 l/m 0,00 h 0,00 h 289 W/m 13,0 km/h (3 Bft) 98,66 %
23.06.2021 15:00 18,5 C 19,8 C 17,1 C 77 % 1021,1 hPa 0,0 l/m 0,60 h 0,00 h 455 W/m 15,7 km/h (3 Bft) 97,61 %
23.06.2021 16:00 18,9 C 19,2 C 16,9 C 75 % 1021,0 hPa 0,0 l/m 0,07 h 0,00 h 288 W/m 15,8 km/h (3 Bft) 97,37 %
23.06.2021 17:00 18,9 C 19,1 C 16,7 C 76 % 1020,8 hPa 0,0 l/m 0,00 h 0,00 h 252 W/m 13,2 km/h (3 Bft) 96,51 %
23.06.2021 18:00 19,0 C 19,1 C 16,4 C 77 % 1020,4 hPa 0,0 l/m 0,03 h 0,00 h 191 W/m 12,6 km/h (3 Bft) 98,96 %
23.06.2021 19:00 18,9 C 18,8 C 16,1 C 77 % 1020,2 hPa 0,0 l/m 0,40 h 0,00 h 167 W/m 17,0 km/h (3 Bft) 98,19 %
23.06.2021 20:00 18,2 C 17,4 C 15,2 C 79 % 1020,4 hPa 0,0 l/m 0,00 h 0,00 h 57 W/m 13,4 km/h (3 Bft) 95,51 %
23.06.2021 21:00 17,4 C 16,4 C 14,3 C 83 % 1020,4 hPa 0,0 l/m 0,00 h 0,00 h 17 W/m 7,4 km/h (2 Bft) 99,44 %
23.06.2021 22:00 16,8 C 16,1 C 14,3 C 87 % 1020,5 hPa 0,0 l/m 0,00 h 0,00 h 0 W/m 7,7 km/h (2 Bft) 99,15 %
23.06.2021 23:00 16,6 C 15,7 C 14,0 C 87 % 1020,2 hPa 0,0 l/m 0,00 h 0,00 h 0 W/m 8,6 km/h (2 Bft) 94,70 %
24.06.2021 00:00 16,0 C 15,0 C 13,4 C 88 % 1020,7 hPa 0,0 l/m 0,00 h 0,00 h 0 W/m 3,3 km/h (1 Bft) 97,54 %
24.06.2021 01:00 15,9 C 15,1 C 13,6 C 90 % 1020,7 hPa 0,0 l/m 0,00 h 0,00 h 0 W/m 2,8 km/h (1 Bft) 98,35 %
24.06.2021 02:00 15,8 C 15,0 C 13,8 C 89 % 1020,7 hPa 0,0 l/m 0,00 h 0,00 h 0 W/m 5,0 km/h (1 Bft) 96,66 %
24.06.2021 03:00 15,5 C 14,7 C 13,4 C 90 % 1020,6 hPa 0,0 l/m 0,00 h 0,00 h 0 W/m 6,3 km/h (2 Bft) 99,58 %
24.06.2021 04:00 15,0 C 14,0 C 12,9 C 91 % 1020,2 hPa 0,0 l/m 0,00 h 0,00 h 0 W/m 7,7 km/h (2 Bft) 95,97 %
24.06.2021 05:00 14,2 C 13,3 C 12,3 C 92 % 1020,1 hPa 0,0 l/m 0,00 h 0,00 h 11 W/m 8,8 km/h (2 Bft) 95,29 %
24.06.2021 06:00 14,2 C 13,8 C 12,8 C 94 % 1019,9 hPa 0,0 l/m 0,00 h 0,00 h 43 W/m 9,7 km/h (2 Bft) 99,07 %
24.06.2021 07:00 14,8 C 14,7 C 13,6 C 93 % 1019,8 hPa 0,0 l/m 0,33 h 0,00 h 128 W/m 11,3 km/h (2 Bft) 96,79 %
24.06.2021 08:00 16,4 C 17,5 C 15,6 C 89 % 1019,8 hPa 0,0 l/m 0,77 h 0,00 h 289 W/m 13,1 km/h (3 Bft) 98,58 %
24.06.2021 09:00 17,5 C 19,2 C 16,9 C 86 % 1019,7 hPa 0,0 l/m 0,60 h 0,00 h 352 W/m 13,3 km/h (3 Bft) 97,94 %
24.06.2021 10:00 18,5 C 19,6 C 17,7 C 83 % 1019,7 hPa 0,0 l/m 0,33 h 0,00 h 348 W/m 13,5 km/h (3 Bft) 96,30 %
24.06.2021 11:00 18,9 C 20,2 C 17,9 C 82 % 1019,8 hPa 0,0 l/m 0,30 h 0,00 h 390 W/m 12,0 km/h (2 Bft) 97,42 %
24.06.2021 12:00 20,8 C 22,9 C 21,1 C 77 % 1019,5 hPa 0,0 l/m 0,67 h 0,00 h 599 W/m 11,5 km/h (2 Bft) 92,19 %
24.06.2021 13:00 21,6 C 22,8 C 20,4 C 73 % 1019,3 hPa 0,0 l/m 0,37 h 0,00 h 409 W/m 13,0 km/h (3 Bft) 95,93 %
24.06.2021 14:00 22,6 C 24,0 C 20,7 C 69 % 1019,1 hPa 0,0 l/m 0,50 h 0,00 h 493 W/m 10,9 km/h (2 Bft) 98,08 %
24.06.2021 15:00 21,9 C 22,6 C 19,3 C 72 % 1019,0 hPa 0,0 l/m 0,13 h 0,00 h 256 W/m 9,5 km/h (2 Bft) 97,37 %
24.06.2021 16:00 20,9 C 20,7 C 18,1 C 74 % 1018,9 hPa 0,0 l/m 0,00 h 0,00 h 124 W/m 10,7 km/h (2 Bft) 97,59 %
24.06.2021 17:00 20,8 C 21,2 C 18,1 C 76 % 1018,7 hPa 0,0 l/m 0,23 h 0,03 h 228 W/m 13,9 km/h (3 Bft) 97,36 %
24.06.2021 18:00 21,6 C 21,6 C 18,7 C 73 % 1018,5 hPa 0,0 l/m 0,27 h 0,00 h 179 W/m 14,4 km/h (3 Bft) 95,78 %
24.06.2021 19:00 20,1 C 19,6 C 17,2 C 77 % 1018,6 hPa 0,0 l/m 0,33 h 0,00 h 114 W/m 15,7 km/h (3 Bft) 99,22 %
24.06.2021 20:00 19,9 C 19,3 C 16,9 C 77 % 1018,7 hPa 0,0 l/m 0,30 h 0,00 h 88 W/m 13,9 km/h (3 Bft) 95,88 %
24.06.2021 21:00 18,7 C 17,5 C 15,4 C 80 % 1018,9 hPa 0,0 l/m 0,13 h 0,00 h 21 W/m 6,2 km/h (2 Bft) 97,59 %
24.06.2021 22:00 17,5 C 16,7 C 14,5 C 85 % 1019,5 hPa 0,0 l/m 0,00 h 0,00 h 0 W/m 4,4 km/h (1 Bft) 99,50 %
24.06.2021 23:00 17,1 C 16,3 C 14,5 C 86 % 1019,6 hPa 0,0 l/m 0,00 h 0,00 h 0 W/m 2,1 km/h (1 Bft) 96,60 %
25.06.2021 00:00 16,9 C 16,1 C 14,5 C 86 % 1019,6 hPa 0,0 l/m 0,00 h 0,00 h 0 W/m 3,1 km/h (1 Bft) 92,47 %
25.06.2021 01:00 16,7 C 16,0 C 14,1 C 86 % 1019,6 hPa 0,0 l/m 0,00 h 0,00 h 0 W/m 3,2 km/h (1 Bft) 99,01 %
25.06.2021 02:00 16,3 C 15,3 C 13,6 C 87 % 1019,4 hPa 0,0 l/m 0,00 h 0,00 h 0 W/m 4,0 km/h (1 Bft) 96,23 %
25.06.2021 03:00 15,3 C 14,0 C 12,8 C 89 % 1019,2 hPa 0,0 l/m 0,00 h 0,00 h 0 W/m 0,6 km/h (0 Bft) 98,87 %
25.06.2021 04:00 14,3 C 13,1 C 12,1 C 90 % 1018,9 hPa 0,0 l/m 0,00 h 0,00 h 0 W/m 0,5 km/h (0 Bft) 99,08 %
25.06.2021 05:00 13,5 C 12,2 C 11,3 C 92 % 1018,9 hPa 0,0 l/m 0,00 h 0,00 h 10 W/m 0,2 km/h (0 Bft) 95,82 %
25.06.2021 06:00 13,1 C 12,5 C 11,8 C 94 % 1018,9 hPa 0,0 l/m 0,00 h 0,00 h 34 W/m 1,8 km/h (1 Bft) 95,68 %
25.06.2021 07:00 14,1 C 14,3 C 13,3 C 92 % 1018,7 hPa 0,0 l/m 0,33 h 0,00 h 133 W/m 6,6 km/h (2 Bft) 96,00 %
25.06.2021 08:00 16,1 C 17,1 C 15,5 C 84 % 1018,7 hPa 0,0 l/m 0,80 h 0,00 h 269 W/m 12,5 km/h (3 Bft) 98,77 %
25.06.2021 09:00 18,4 C 21,4 C 19,1 C 73 % 1018,7 hPa 0,0 l/m 1,00 h 0,00 h 473 W/m 14,5 km/h (3 Bft) 99,21 %
25.06.2021 10:00 19,6 C 21,0 C 20,0 C 68 % 1018,6 hPa 0,0 l/m 0,77 h 0,00 h 469 W/m 16,6 km/h (3 Bft) 97,16 %
25.06.2021 11:00 19,9 C 20,5 C 18,6 C 66 % 1018,4 hPa 0,0 l/m 0,33 h 0,00 h 410 W/m 11,4 km/h (2 Bft) 96,02 %
25.06.2021 12:00 21,7 C 23,1 C 24,1 C 59 % 1018,0 hPa 0,0 l/m 1,00 h 0,00 h 682 W/m 11,8 km/h (2 Bft) 99,25 %
25.06.2021 13:00 22,4 C 23,5 C 23,0 C 58 % 1017,9 hPa 0,0 l/m 0,83 h 0,00 h 556 W/m 11,4 km/h (2 Bft) 96,79 %
25.06.2021 14:00 22,9 C 23,6 C 21,2 C 60 % 1017,7 hPa 0,0 l/m 0,33 h 0,00 h 432 W/m 12,2 km/h (2 Bft) 97,34 %
25.06.2021 15:00 23,4 C 24,2 C 21,0 C 60 % 1017,5 hPa 0,0 l/m 0,47 h 0,00 h 490 W/m 10,8 km/h (2 Bft) 90,74 %
25.06.2021 16:00 24,1 C 26,4 C 21,4 C 59 % 1017,5 hPa 0,0 l/m 0,70 h 0,00 h 567 W/m 10,1 km/h (2 Bft) 96,37 %
25.06.2021 17:00 23,8 C 24,1 C 20,9 C 59 % 1017,3 hPa 0,0 l/m 0,10 h 0,00 h 271 W/m 8,0 km/h (2 Bft) 98,50 %
25.06.2021 18:00 23,0 C 22,9 C 20,0 C 63 % 1017,2 hPa 0,0 l/m 0,13 h 0,00 h 210 W/m 11,3 km/h (2 Bft) 96,72 %
25.06.2021 19:00 21,7 C 21,0 C 18,7 C 67 % 1017,3 hPa 0,0 l/m 0,00 h 0,00 h 98 W/m 7,6 km/h (2 Bft) 98,02 %
25.06.2021 20:00 21,2 C 20,4 C 18,1 C 69 % 1017,5 hPa 0,0 l/m 0,00 h 0,00 h 52 W/m 5,3 km/h (1 Bft) 97,94 %
25.06.2021 21:00 20,3 C 19,2 C 17,0 C 73 % 1018,0 hPa 0,0 l/m 0,00 h 0,00 h 11 W/m 3,5 km/h (1 Bft) 95,97 %
25.06.2021 22:00 19,3 C 18,0 C 15,8 C 79 % 1018,4 hPa 0,0 l/m 0,00 h 0,00 h 0 W/m 4,1 km/h (1 Bft) 99,02 %
25.06.2021 23:00 17,9 C 16,5 C 14,6 C 84 % 1018,6 hPa 0,0 l/m 0,00 h 0,00 h 0 W/m 1,7 km/h (1 Bft) 98,35 %
26.06.2021 00:00 16,8 C 15,3 C 13,7 C 88 % 1018,8 hPa 0,0 l/m 0,00 h 0,00 h 0 W/m 0,0 km/h (0 Bft) 93,99 %
26.06.2021 01:00 16,0 C 14,5 C 13,2 C 91 % 1018,9 hPa 0,0 l/m 0,00 h 0,00 h 0 W/m 0,0 km/h (0 Bft) 98,73 %
26.06.2021 02:00 15,4 C 14,3 C 12,8 C 93 % 1018,8 hPa 0,0 l/m 0,00 h 0,00 h 0 W/m 0,0 km/h (0 Bft) 98,15 %
26.06.2021 03:00 15,0 C 13,9 C 12,5 C 93 % 1018,7 hPa 0,0 l/m 0,00 h 0,00 h 0 W/m 0,1 km/h (0 Bft) 98,65 %
26.06.2021 04:00 14,5 C 13,3 C 12,3 C 94 % 1018,7 hPa 0,0 l/m 0,00 h 0,00 h 0 W/m 0,0 km/h (0 Bft) 95,88 %
26.06.2021 05:00 14,1 C 13,1 C 12,3 C 95 % 1018,7 hPa 0,0 l/m 0,00 h 0,00 h 9 W/m 0,0 km/h (0 Bft) 97,79 %
26.06.2021 06:00 14,2 C 13,9 C 12,9 C 97 % 1018,8 hPa 0,0 l/m 0,00 h 0,00 h 39 W/m 0,0 km/h (0 Bft) 97,49 %
26.06.2021 07:00 14,9 C 15,2 C 14,0 C 97 % 1018,9 hPa 0,0 l/m 0,03 h 0,00 h 88 W/m 0,0 km/h (0 Bft) 93,02 %
26.06.2021 08:00 16,9 C 19,5 C 16,9 C 94 % 1019,0 hPa 0,0 l/m 1,00 h 0,00 h 344 W/m 0,0 km/h (0 Bft) 99,64 %
26.06.2021 09:00 20,7 C 25,7 C 21,6 C 77 % 1019,1 hPa 0,0 l/m 1,00 h 0,00 h 528 W/m 0,0 km/h (0 Bft) 98,78 %
26.06.2021 10:00 22,5 C 25,6 C 25,7 C 70 % 1018,9 hPa 0,0 l/m 1,00 h 0,00 h 685 W/m 6,9 km/h (2 Bft) 96,91 %
26.06.2021 11:00 23,5 C 25,6 C 24,6 C 69 % 1018,9 hPa 0,0 l/m 1,00 h 0,00 h 741 W/m 8,1 km/h (2 Bft) 97,56 %
26.06.2021 12:00 24,8 C 26,7 C 28,8 C 61 % 1018,8 hPa 0,0 l/m 1,00 h 0,00 h 786 W/m 7,8 km/h (2 Bft) 96,94 %
26.06.2021 13:00 26,0 C 28,0 C 31,1 C 57 % 1018,6 hPa 0,0 l/m 0,87 h 0,00 h 866 W/m 8,1 km/h (2 Bft) 98,22 %
26.06.2021 14:00 27,1 C 29,9 C 25,8 C 52 % 1018,5 hPa 0,0 l/m 1,00 h 0,00 h 944 W/m 9,9 km/h (2 Bft) 96,63 %
26.06.2021 15:00 27,7 C 30,1 C 24,7 C 50 % 1018,1 hPa 0,0 l/m 1,00 h 0,00 h 876 W/m 9,1 km/h (2 Bft) 97,30 %
26.06.2021 16:00 27,7 C 30,0 C 24,7 C 50 % 1017,6 hPa 0,0 l/m 0,73 h 0,00 h 585 W/m 9,3 km/h (2 Bft) 99,57 %
26.06.2021 17:00 27,3 C 29,9 C 24,6 C 54 % 1017,2 hPa 0,0 l/m 0,47 h 0,00 h 384 W/m 8,3 km/h (2 Bft) 95,09 %
26.06.2021 18:00 27,3 C 29,5 C 24,5 C 54 % 1016,9 hPa 0,0 l/m 0,50 h 0,00 h 311 W/m 7,9 km/h (2 Bft) 98,18 %
26.06.2021 19:00 26,0 C 25,6 C 22,4 C 59 % 1016,8 hPa 0,0 l/m 0,53 h 0,00 h 160 W/m 5,7 km/h (1 Bft) 99,43 %
26.06.2021 20:00 24,6 C 23,6 C 20,8 C 63 % 1016,8 hPa 0,0 l/m 0,00 h 0,00 h 60 W/m 3,3 km/h (1 Bft) 96,73 %
26.06.2021 21:00 23,3 C 21,8 C 19,3 C 69 % 1016,9 hPa 0,0 l/m 0,00 h 0,00 h 20 W/m 2,2 km/h (1 Bft) 97,15 %
26.06.2021 22:00 21,9 C 20,6 C 18,1 C 73 % 1017,3 hPa 0,0 l/m 0,00 h 0,00 h 0 W/m 1,1 km/h (0 Bft) 98,79 %
26.06.2021 23:00 21,2 C 19,9 C 17,6 C 77 % 1017,3 hPa 0,0 l/m 0,00 h 0,00 h 0 W/m 0,3 km/h (0 Bft) 97,08 %
27.06.2021 00:00 20,5 C 18,9 C 16,7 C 78 % 1017,1 hPa 0,0 l/m 0,00 h 0,00 h 0 W/m 0,6 km/h (0 Bft) 96,60 %
27.06.2021 01:00 19,5 C 18,3 C 16,1 C 80 % 1017,2 hPa 0,0 l/m 0,00 h 0,00 h 0 W/m 1,4 km/h (1 Bft) 97,51 %
27.06.2021 02:00 18,7 C 17,6 C 15,5 C 83 % 1017,0 hPa 0,0 l/m 0,00 h 0,00 h 0 W/m 2,3 km/h (1 Bft) 96,46 %
27.06.2021 03:00 17,6 C 16,5 C 14,7 C 86 % 1016,9 hPa 0,0 l/m 0,00 h 0,00 h 0 W/m 2,6 km/h (1 Bft) 99,72 %
27.06.2021 04:00 16,7 C 15,7 C 13,9 C 89 % 1016,8 hPa 0,0 l/m 0,00 h 0,00 h 0 W/m 1,8 km/h (1 Bft) 97,43 %
27.06.2021 05:00 16,1 C 15,4 C 13,7 C 91 % 1016,6 hPa 0,0 l/m 0,40 h 0,00 h 23 W/m 2,5 km/h (1 Bft) 94,59 %
27.06.2021 06:00 16,6 C 16,5 C 14,6 C 92 % 1016,4 hPa 0,0 l/m 0,10 h 0,00 h 50 W/m 3,8 km/h (1 Bft) 99,30 %
27.06.2021 07:00 17,4 C 17,6 C 15,5 C 92 % 1016,0 hPa 0,0 l/m 0,23 h 0,00 h 124 W/m 4,4 km/h (1 Bft) 97,30 %
27.06.2021 08:00 20,1 C 22,6 C 18,7 C 85 % 1016,0 hPa 0,0 l/m 1,00 h 0,00 h 384 W/m 4,7 km/h (1 Bft) 97,72 %
27.06.2021 09:00 23,6 C 27,7 C 23,1 C 73 % 1016,1 hPa 0,0 l/m 1,00 h 0,00 h 510 W/m 7,3 km/h (2 Bft) 97,93 %
27.06.2021 10:00 25,2 C 27,1 C 25,8 C 66 % 1015,9 hPa 0,0 l/m 1,00 h 0,00 h 518 W/m 7,3 km/h (2 Bft) 97,58 %
27.06.2021 11:00 26,2 C 28,3 C 26,1 C 64 % 1015,6 hPa 0,0 l/m 1,00 h 0,00 h 650 W/m 7,5 km/h (2 Bft) 97,73 %
27.06.2021 12:00 27,9 C 29,7 C 30,2 C 58 % 1015,0 hPa 0,0 l/m 1,00 h 0,00 h 787 W/m 10,0 km/h (2 Bft) 97,86 %
27.06.2021 13:00 29,1 C 30,3 C 32,8 C 54 % 1014,6 hPa 0,0 l/m 0,77 h 0,00 h 751 W/m 12,2 km/h (3 Bft) 96,63 %
27.06.2021 14:00 29,2 C 30,7 C 27,1 C 55 % 1014,2 hPa 0,0 l/m 0,53 h 0,00 h 643 W/m 9,2 km/h (2 Bft) 98,22 %
27.06.2021 15:00 28,4 C 28,1 C 25,7 C 56 % 1013,8 hPa 0,0 l/m 0,00 h 0,00 h 224 W/m 7,2 km/h (2 Bft) 97,15 %
27.06.2021 16:00 27,7 C 27,7 C 24,9 C 60 % 1013,5 hPa 0,0 l/m 0,12 h 0,00 h 218 W/m 5,1 km/h (1 Bft) 97,37 %
27.06.2021 17:00 26,6 C 25,5 C 22,8 C 66 % 1013,4 hPa 0,0 l/m 0,00 h 0,10 h 88 W/m 5,8 km/h (2 Bft) 97,51 %
27.06.2021 18:00 23,5 C 22,5 C 18,9 C 73 % 1014,0 hPa 0,0 l/m 0,00 h 0,13 h 62 W/m 9,8 km/h (2 Bft) 97,69 %
27.06.2021 19:00 21,8 C 21,0 C 18,4 C 80 % 1014,1 hPa 0,0 l/m 0,00 h 0,17 h 75 W/m 11,4 km/h (2 Bft) 97,86 %
27.06.2021 20:00 20,2 C 19,4 C 17,4 C 85 % 1014,3 hPa 0,0 l/m 0,00 h 0,10 h 12 W/m 10,3 km/h (2 Bft) 97,10 %
27.06.2021 21:00 19,6 C 18,9 C 16,7 C 89 % 1014,4 hPa 0,0 l/m 0,00 h 0,10 h 2 W/m 10,6 km/h (2 Bft) 96,48 %
27.06.2021 22:00 19,1 C 18,6 C 16,6 C 92 % 1014,7 hPa 0,0 l/m 0,00 h 0,00 h 0 W/m 8,0 km/h (2 Bft) 98,69 %
27.06.2021 23:00 19,1 C 18,3 C 16,7 C 92 % 1014,9 hPa 0,0 l/m 0,00 h 0,00 h 0 W/m 3,7 km/h (1 Bft) 94,84 %
Min-Datum _ 22.06.21 25.06.21 22.06.21 26.06.21 21.06.21 - - - - 21.06.21 25.06.21
_ Min-Zeit 05:42 05:34 04:42 15:08 05:48 - - - - 00:22 00:46
Minimum _ 12,6 C 11,7 C 10,6 C 48 % 1003,5 hPa - - - - 0,0 km/h (0 Bft) 11,11 %
Max-Datum _ 27.06.21 26.06.21 27.06.21 21.06.21 23.06.21 21.06.21 27.06.21 21.06.21 26.06.21 21.06.21 21.06.21
_ Max-Zeit 14:36 16:22 13:16 04:34 13:10 03:42 16:45 00:08 13:16 12:28 00:56
Maximum _ 29,6 C 32,8 C 35,6 C 99 % 1021,2 hPa 8,4 l/m 0,08 h 0,07 h 1139 W/m 41,8 km/h
N-NW (6 Bft)
100,00 %
Durchschnitt _ 18,3 C 18,3 C 16,6 C 82 % 1016,5 hPa #29,2 l/m #32:04 h #9:42 h 247 W/m 8,9 km/h (2 Bft) 97,37 %
© 2021 W. Hausmann